sensor_id;sensor_type;location;lat;lon;timestamp;P1;durP1;ratioP1;P2;durP2;ratioP2
23123;SDS011;11731;48.592;8.858;2023-11-19T00:02:18;3.13;;;2.50;;
23123;SDS011;11731;48.592;8.858;2023-11-19T00:05:04;3.10;;;2.73;;
23123;SDS011;11731;48.592;8.858;2023-11-19T00:08:07;3.33;;;2.77;;
23123;SDS011;11731;48.592;8.858;2023-11-19T00:10:24;4.27;;;2.57;;
23123;SDS011;11731;48.592;8.858;2023-11-19T00:12:51;4.27;;;2.77;;
23123;SDS011;11731;48.592;8.858;2023-11-19T00:15:18;4.83;;;2.70;;
23123;SDS011;11731;48.592;8.858;2023-11-19T00:17:45;3.87;;;3.20;;
23123;SDS011;11731;48.592;8.858;2023-11-19T00:20:15;4.17;;;3.20;;
23123;SDS011;11731;48.592;8.858;2023-11-19T00:22:45;3.67;;;2.60;;
23123;SDS011;11731;48.592;8.858;2023-11-19T00:25:25;4.27;;;2.87;;
23123;SDS011;11731;48.592;8.858;2023-11-19T00:27:55;3.73;;;2.77;;
23123;SDS011;11731;48.592;8.858;2023-11-19T00:30:22;3.30;;;2.57;;
23123;SDS011;11731;48.592;8.858;2023-11-19T00:32:49;5.93;;;2.97;;
23123;SDS011;11731;48.592;8.858;2023-11-19T00:35:17;3.40;;;2.50;;
23123;SDS011;11731;48.592;8.858;2023-11-19T00:37:51;3.70;;;2.97;;
23123;SDS011;11731;48.592;8.858;2023-11-19T00:40:22;2.47;;;2.27;;
23123;SDS011;11731;48.592;8.858;2023-11-19T00:42:49;3.23;;;2.80;;
23123;SDS011;11731;48.592;8.858;2023-11-19T00:45:23;3.23;;;2.40;;
23123;SDS011;11731;48.592;8.858;2023-11-19T00:47:50;3.33;;;2.87;;
23123;SDS011;11731;48.592;8.858;2023-11-19T00:50:18;3.47;;;2.77;;
23123;SDS011;11731;48.592;8.858;2023-11-19T00:55:30;2.80;;;2.50;;
23123;SDS011;11731;48.592;8.858;2023-11-19T00:57:57;4.40;;;2.63;;
23123;SDS011;11731;48.592;8.858;2023-11-19T01:00:24;2.63;;;2.30;;
23123;SDS011;11731;48.592;8.858;2023-11-19T01:05:39;4.00;;;2.90;;
23123;SDS011;11731;48.592;8.858;2023-11-19T01:08:05;4.30;;;2.87;;
23123;SDS011;11731;48.592;8.858;2023-11-19T01:10:34;5.33;;;3.00;;
23123;SDS011;11731;48.592;8.858;2023-11-19T01:13:03;4.13;;;2.90;;
23123;SDS011;11731;48.592;8.858;2023-11-19T01:15:30;3.10;;;2.53;;
23123;SDS011;11731;48.592;8.858;2023-11-19T01:18:05;4.03;;;2.63;;
23123;SDS011;11731;48.592;8.858;2023-11-19T01:20:34;2.87;;;2.60;;
23123;SDS011;11731;48.592;8.858;2023-11-19T01:23:02;3.20;;;2.50;;
23123;SDS011;11731;48.592;8.858;2023-11-19T01:25:29;3.03;;;2.63;;
23123;SDS011;11731;48.592;8.858;2023-11-19T01:27:59;2.50;;;2.30;;
23123;SDS011;11731;48.592;8.858;2023-11-19T01:30:27;2.70;;;2.10;;
23123;SDS011;11731;48.592;8.858;2023-11-19T01:35:58;2.53;;;2.17;;
23123;SDS011;11731;48.592;8.858;2023-11-19T01:41:08;2.63;;;2.37;;
23123;SDS011;11731;48.592;8.858;2023-11-19T01:43:36;3.10;;;2.13;;
23123;SDS011;11731;48.592;8.858;2023-11-19T01:46:04;3.53;;;2.50;;
23123;SDS011;11731;48.592;8.858;2023-11-19T01:48:41;4.70;;;2.00;;
23123;SDS011;11731;48.592;8.858;2023-11-19T01:51:12;2.70;;;2.27;;
23123;SDS011;11731;48.592;8.858;2023-11-19T01:53:43;2.93;;;2.30;;
23123;SDS011;11731;48.592;8.858;2023-11-19T01:56:15;2.20;;;2.00;;
23123;SDS011;11731;48.592;8.858;2023-11-19T01:58:52;3.37;;;2.23;;
23123;SDS011;11731;48.592;8.858;2023-11-19T02:01:21;2.23;;;1.93;;
23123;SDS011;11731;48.592;8.858;2023-11-19T02:03:48;2.90;;;1.93;;
23123;SDS011;11731;48.592;8.858;2023-11-19T02:06:53;3.10;;;2.03;;
23123;SDS011;11731;48.592;8.858;2023-11-19T02:09:13;2.87;;;2.10;;
23123;SDS011;11731;48.592;8.858;2023-11-19T02:11:44;3.83;;;1.87;;
23123;SDS011;11731;48.592;8.858;2023-11-19T02:14:14;2.00;;;1.80;;
23123;SDS011;11731;48.592;8.858;2023-11-19T02:16:50;3.93;;;2.10;;
23123;SDS011;11731;48.592;8.858;2023-11-19T02:19:18;2.10;;;1.50;;
23123;SDS011;11731;48.592;8.858;2023-11-19T02:21:46;1.60;;;1.50;;
23123;SDS011;11731;48.592;8.858;2023-11-19T02:24:14;1.03;;;0.93;;
23123;SDS011;11731;48.592;8.858;2023-11-19T02:26:47;2.10;;;1.00;;
23123;SDS011;11731;48.592;8.858;2023-11-19T02:29:31;0.67;;;0.67;;
23123;SDS011;11731;48.592;8.858;2023-11-19T02:32:00;0.50;;;0.50;;
23123;SDS011;11731;48.592;8.858;2023-11-19T02:34:28;0.93;;;0.63;;
23123;SDS011;11731;48.592;8.858;2023-11-19T02:36:56;0.67;;;0.40;;
23123;SDS011;11731;48.592;8.858;2023-11-19T02:39:23;0.43;;;0.20;;
23123;SDS011;11731;48.592;8.858;2023-11-19T02:41:50;0.20;;;0.20;;
23123;SDS011;11731;48.592;8.858;2023-11-19T02:44:18;0.30;;;0.30;;
23123;SDS011;11731;48.592;8.858;2023-11-19T02:46:52;0.40;;;0.40;;
23123;SDS011;11731;48.592;8.858;2023-11-19T02:49:20;0.23;;;0.23;;
23123;SDS011;11731;48.592;8.858;2023-11-19T02:51:50;0.87;;;0.17;;
23123;SDS011;11731;48.592;8.858;2023-11-19T02:54:25;0.20;;;0.20;;
23123;SDS011;11731;48.592;8.858;2023-11-19T02:58:07;0.40;;;0.40;;
23123;SDS011;11731;48.592;8.858;2023-11-19T03:00:11;0.40;;;0.40;;
23123;SDS011;11731;48.592;8.858;2023-11-19T03:02:41;0.30;;;0.30;;
23123;SDS011;11731;48.592;8.858;2023-11-19T03:05:11;0.60;;;0.30;;
23123;SDS011;11731;48.592;8.858;2023-11-19T03:07:39;1.37;;;0.27;;
23123;SDS011;11731;48.592;8.858;2023-11-19T03:10:07;1.20;;;0.20;;
23123;SDS011;11731;48.592;8.858;2023-11-19T03:12:37;0.30;;;0.30;;
23123;SDS011;11731;48.592;8.858;2023-11-19T03:18:21;0.10;;;0.10;;
23123;SDS011;11731;48.592;8.858;2023-11-19T03:20:48;0.40;;;0.20;;
23123;SDS011;11731;48.592;8.858;2023-11-19T03:23:17;0.20;;;0.20;;
23123;SDS011;11731;48.592;8.858;2023-11-19T03:25:44;0.40;;;0.40;;
23123;SDS011;11731;48.592;8.858;2023-11-19T03:28:13;0.60;;;0.40;;
23123;SDS011;11731;48.592;8.858;2023-11-19T03:30:40;0.23;;;0.23;;
23123;SDS011;11731;48.592;8.858;2023-11-19T03:33:07;0.20;;;0.20;;
23123;SDS011;11731;48.592;8.858;2023-11-19T03:38:35;0.30;;;0.30;;
23123;SDS011;11731;48.592;8.858;2023-11-19T03:44:22;0.30;;;0.30;;
23123;SDS011;11731;48.592;8.858;2023-11-19T03:47:10;0.20;;;0.20;;
23123;SDS011;11731;48.592;8.858;2023-11-19T03:49:47;0.40;;;0.20;;
23123;SDS011;11731;48.592;8.858;2023-11-19T03:52:15;0.10;;;0.10;;
23123;SDS011;11731;48.592;8.858;2023-11-19T03:54:50;0.13;;;0.13;;
23123;SDS011;11731;48.592;8.858;2023-11-19T04:00:25;0.10;;;0.10;;
23123;SDS011;11731;48.592;8.858;2023-11-19T04:02:53;0.60;;;0.07;;
23123;SDS011;11731;48.592;8.858;2023-11-19T04:05:35;0.23;;;0.23;;
23123;SDS011;11731;48.592;8.858;2023-11-19T04:08:02;1.03;;;0.40;;
23123;SDS011;11731;48.592;8.858;2023-11-19T04:13:27;0.40;;;0.20;;
23123;SDS011;11731;48.592;8.858;2023-11-19T04:15:57;2.00;;;0.17;;
23123;SDS011;11731;48.592;8.858;2023-11-19T04:21:59;0.20;;;0.20;;
23123;SDS011;11731;48.592;8.858;2023-11-19T04:24:27;0.10;;;0.10;;
23123;SDS011;11731;48.592;8.858;2023-11-19T04:26:55;0.40;;;0.20;;
23123;SDS011;11731;48.592;8.858;2023-11-19T04:29:23;0.53;;;0.30;;
23123;SDS011;11731;48.592;8.858;2023-11-19T04:31:50;0.10;;;0.10;;
23123;SDS011;11731;48.592;8.858;2023-11-19T04:34:19;0.17;;;0.07;;
23123;SDS011;11731;48.592;8.858;2023-11-19T04:36:55;1.60;;;0.30;;
23123;SDS011;11731;48.592;8.858;2023-11-19T04:39:22;0.20;;;0.20;;
23123;SDS011;11731;48.592;8.858;2023-11-19T04:44:42;0.00;;;0.00;;
23123;SDS011;11731;48.592;8.858;2023-11-19T04:47:09;0.60;;;0.30;;
23123;SDS011;11731;48.592;8.858;2023-11-19T04:49:39;0.00;;;0.00;;
23123;SDS011;11731;48.592;8.858;2023-11-19T04:52:08;0.20;;;0.20;;
23123;SDS011;11731;48.592;8.858;2023-11-19T04:54:35;0.10;;;0.10;;
23123;SDS011;11731;48.592;8.858;2023-11-19T04:57:06;0.93;;;0.20;;
23123;SDS011;11731;48.592;8.858;2023-11-19T04:59:50;0.30;;;0.30;;
23123;SDS011;11731;48.592;8.858;2023-11-19T05:02:17;0.40;;;0.40;;
23123;SDS011;11731;48.592;8.858;2023-11-19T05:04:59;1.30;;;0.27;;
23123;SDS011;11731;48.592;8.858;2023-11-19T05:07:40;0.40;;;0.40;;
23123;SDS011;11731;48.592;8.858;2023-11-19T05:10:07;0.30;;;0.20;;
23123;SDS011;11731;48.592;8.858;2023-11-19T05:12:35;0.30;;;0.30;;
23123;SDS011;11731;48.592;8.858;2023-11-19T05:18:11;0.43;;;0.30;;
23123;SDS011;11731;48.592;8.858;2023-11-19T05:21:08;0.40;;;0.20;;
23123;SDS011;11731;48.592;8.858;2023-11-19T05:23:44;0.10;;;0.10;;
23123;SDS011;11731;48.592;8.858;2023-11-19T05:26:18;0.20;;;0.20;;
23123;SDS011;11731;48.592;8.858;2023-11-19T05:28:59;0.40;;;0.30;;
23123;SDS011;11731;48.592;8.858;2023-11-19T05:31:26;0.40;;;0.40;;
23123;SDS011;11731;48.592;8.858;2023-11-19T05:33:54;0.60;;;0.60;;
23123;SDS011;11731;48.592;8.858;2023-11-19T05:36:24;0.70;;;0.70;;
23123;SDS011;11731;48.592;8.858;2023-11-19T05:39:01;0.90;;;0.90;;
23123;SDS011;11731;48.592;8.858;2023-11-19T05:41:46;0.60;;;0.60;;
23123;SDS011;11731;48.592;8.858;2023-11-19T05:44:13;0.20;;;0.20;;
23123;SDS011;11731;48.592;8.858;2023-11-19T05:46:40;0.10;;;0.10;;
23123;SDS011;11731;48.592;8.858;2023-11-19T05:49:16;0.30;;;0.10;;
23123;SDS011;11731;48.592;8.858;2023-11-19T05:51:43;0.30;;;0.23;;
23123;SDS011;11731;48.592;8.858;2023-11-19T05:54:11;0.37;;;0.37;;
23123;SDS011;11731;48.592;8.858;2023-11-19T05:56:38;0.50;;;0.50;;
23123;SDS011;11731;48.592;8.858;2023-11-19T05:59:39;0.30;;;0.30;;
23123;SDS011;11731;48.592;8.858;2023-11-19T06:01:58;0.50;;;0.30;;
23123;SDS011;11731;48.592;8.858;2023-11-19T06:04:26;0.20;;;0.20;;
23123;SDS011;11731;48.592;8.858;2023-11-19T06:06:53;0.27;;;0.27;;
23123;SDS011;11731;48.592;8.858;2023-11-19T06:09:20;0.20;;;0.20;;
23123;SDS011;11731;48.592;8.858;2023-11-19T06:11:48;0.93;;;0.30;;
23123;SDS011;11731;48.592;8.858;2023-11-19T06:14:16;0.60;;;0.40;;
23123;SDS011;11731;48.592;8.858;2023-11-19T06:17:45;0.20;;;0.20;;
23123;SDS011;11731;48.592;8.858;2023-11-19T06:22:54;0.10;;;0.10;;
23123;SDS011;11731;48.592;8.858;2023-11-19T06:25:21;0.20;;;0.20;;
23123;SDS011;11731;48.592;8.858;2023-11-19T06:27:57;0.20;;;0.20;;
23123;SDS011;11731;48.592;8.858;2023-11-19T06:30:24;0.70;;;0.37;;
23123;SDS011;11731;48.592;8.858;2023-11-19T06:32:55;0.50;;;0.50;;
23123;SDS011;11731;48.592;8.858;2023-11-19T06:39:13;0.40;;;0.40;;
23123;SDS011;11731;48.592;8.858;2023-11-19T06:41:44;0.37;;;0.37;;
23123;SDS011;11731;48.592;8.858;2023-11-19T06:44:11;0.40;;;0.40;;
23123;SDS011;11731;48.592;8.858;2023-11-19T06:46:38;0.57;;;0.30;;
23123;SDS011;11731;48.592;8.858;2023-11-19T06:49:05;0.50;;;0.47;;
23123;SDS011;11731;48.592;8.858;2023-11-19T06:51:35;0.43;;;0.37;;
23123;SDS011;11731;48.592;8.858;2023-11-19T06:54:06;2.63;;;0.40;;
23123;SDS011;11731;48.592;8.858;2023-11-19T06:56:35;0.40;;;0.40;;
23123;SDS011;11731;48.592;8.858;2023-11-19T06:59:02;1.80;;;0.50;;
23123;SDS011;11731;48.592;8.858;2023-11-19T07:01:33;0.60;;;0.50;;
23123;SDS011;11731;48.592;8.858;2023-11-19T07:04:01;2.13;;;0.60;;
23123;SDS011;11731;48.592;8.858;2023-11-19T07:09:25;0.53;;;0.53;;
23123;SDS011;11731;48.592;8.858;2023-11-19T07:11:54;0.87;;;0.53;;
23123;SDS011;11731;48.592;8.858;2023-11-19T07:14:21;0.83;;;0.67;;
23123;SDS011;11731;48.592;8.858;2023-11-19T07:16:48;3.37;;;0.77;;
23123;SDS011;11731;48.592;8.858;2023-11-19T07:19:16;0.87;;;0.80;;
23123;SDS011;11731;48.592;8.858;2023-11-19T07:21:44;0.80;;;0.80;;
23123;SDS011;11731;48.592;8.858;2023-11-19T07:24:13;0.70;;;0.70;;
23123;SDS011;11731;48.592;8.858;2023-11-19T07:26:42;0.80;;;0.63;;
23123;SDS011;11731;48.592;8.858;2023-11-19T07:29:11;3.07;;;0.80;;
23123;SDS011;11731;48.592;8.858;2023-11-19T07:31:43;2.13;;;1.03;;
23123;SDS011;11731;48.592;8.858;2023-11-19T07:34:19;0.70;;;0.70;;
23123;SDS011;11731;48.592;8.858;2023-11-19T07:36:46;1.50;;;1.20;;
23123;SDS011;11731;48.592;8.858;2023-11-19T07:39:13;1.57;;;1.40;;
23123;SDS011;11731;48.592;8.858;2023-11-19T07:41:40;1.10;;;0.93;;
23123;SDS011;11731;48.592;8.858;2023-11-19T07:44:07;4.97;;;1.10;;
23123;SDS011;11731;48.592;8.858;2023-11-19T07:46:35;1.03;;;0.97;;
23123;SDS011;11731;48.592;8.858;2023-11-19T07:49:05;1.07;;;0.80;;
23123;SDS011;11731;48.592;8.858;2023-11-19T07:51:33;0.73;;;0.73;;
23123;SDS011;11731;48.592;8.858;2023-11-19T07:57:03;2.40;;;0.90;;
23123;SDS011;11731;48.592;8.858;2023-11-19T07:59:30;0.80;;;0.80;;
23123;SDS011;11731;48.592;8.858;2023-11-19T08:01:58;1.30;;;1.20;;
23123;SDS011;11731;48.592;8.858;2023-11-19T08:04:25;2.10;;;1.00;;
23123;SDS011;11731;48.592;8.858;2023-11-19T08:06:52;1.30;;;1.20;;
23123;SDS011;11731;48.592;8.858;2023-11-19T08:09:36;1.43;;;1.33;;
23123;SDS011;11731;48.592;8.858;2023-11-19T08:12:03;1.50;;;1.40;;
23123;SDS011;11731;48.592;8.858;2023-11-19T08:14:54;1.53;;;1.43;;
23123;SDS011;11731;48.592;8.858;2023-11-19T08:17:24;2.53;;;1.20;;
23123;SDS011;11731;48.592;8.858;2023-11-19T08:19:51;1.37;;;1.27;;
23123;SDS011;11731;48.592;8.858;2023-11-19T08:22:45;2.47;;;1.77;;
23123;SDS011;11731;48.592;8.858;2023-11-19T08:25:12;1.57;;;1.30;;
23123;SDS011;11731;48.592;8.858;2023-11-19T08:27:39;1.20;;;1.10;;
23123;SDS011;11731;48.592;8.858;2023-11-19T08:30:06;1.30;;;1.20;;
23123;SDS011;11731;48.592;8.858;2023-11-19T08:32:35;1.93;;;1.40;;
23123;SDS011;11731;48.592;8.858;2023-11-19T08:35:03;1.73;;;1.10;;
23123;SDS011;11731;48.592;8.858;2023-11-19T08:37:30;1.27;;;1.10;;
23123;SDS011;11731;48.592;8.858;2023-11-19T08:39:57;4.00;;;1.10;;
23123;SDS011;11731;48.592;8.858;2023-11-19T08:42:24;1.43;;;1.30;;
23123;SDS011;11731;48.592;8.858;2023-11-19T08:44:57;1.20;;;1.10;;
23123;SDS011;11731;48.592;8.858;2023-11-19T08:47:25;1.57;;;1.40;;
23123;SDS011;11731;48.592;8.858;2023-11-19T08:49:54;1.13;;;0.90;;
23123;SDS011;11731;48.592;8.858;2023-11-19T08:52:21;3.97;;;1.47;;
23123;SDS011;11731;48.592;8.858;2023-11-19T08:55:07;1.70;;;1.40;;
23123;SDS011;11731;48.592;8.858;2023-11-19T08:57:43;1.83;;;1.00;;
23123;SDS011;11731;48.592;8.858;2023-11-19T09:00:18;0.90;;;0.90;;
23123;SDS011;11731;48.592;8.858;2023-11-19T09:09:33;1.17;;;1.07;;
23123;SDS011;11731;48.592;8.858;2023-11-19T09:12:04;0.90;;;0.80;;
23123;SDS011;11731;48.592;8.858;2023-11-19T09:14:32;1.47;;;1.00;;
23123;SDS011;11731;48.592;8.858;2023-11-19T09:16:59;1.20;;;0.80;;
23123;SDS011;11731;48.592;8.858;2023-11-19T09:19:27;1.07;;;0.87;;
23123;SDS011;11731;48.592;8.858;2023-11-19T09:21:55;0.80;;;0.80;;
23123;SDS011;11731;48.592;8.858;2023-11-19T09:24:31;0.80;;;0.80;;
23123;SDS011;11731;48.592;8.858;2023-11-19T09:27:04;0.77;;;0.77;;
23123;SDS011;11731;48.592;8.858;2023-11-19T09:29:47;1.07;;;1.00;;
23123;SDS011;11731;48.592;8.858;2023-11-19T09:32:29;0.70;;;0.70;;
23123;SDS011;11731;48.592;8.858;2023-11-19T09:35:20;0.90;;;0.90;;
23123;SDS011;11731;48.592;8.858;2023-11-19T09:37:47;1.10;;;0.80;;
23123;SDS011;11731;48.592;8.858;2023-11-19T09:40:22;2.60;;;1.17;;
23123;SDS011;11731;48.592;8.858;2023-11-19T09:42:51;1.10;;;0.70;;
23123;SDS011;11731;48.592;8.858;2023-11-19T09:45:37;0.57;;;0.50;;
23123;SDS011;11731;48.592;8.858;2023-11-19T09:48:14;0.90;;;0.70;;
23123;SDS011;11731;48.592;8.858;2023-11-19T09:50:51;0.70;;;0.70;;
23123;SDS011;11731;48.592;8.858;2023-11-19T09:53:24;0.70;;;0.70;;
23123;SDS011;11731;48.592;8.858;2023-11-19T09:55:52;0.40;;;0.40;;
23123;SDS011;11731;48.592;8.858;2023-11-19T09:59:24;3.00;;;0.67;;
23123;SDS011;11731;48.592;8.858;2023-11-19T10:01:27;0.70;;;0.70;;
23123;SDS011;11731;48.592;8.858;2023-11-19T10:03:57;1.13;;;1.03;;
23123;SDS011;11731;48.592;8.858;2023-11-19T10:06:24;0.80;;;0.80;;
23123;SDS011;11731;48.592;8.858;2023-11-19T10:08:52;0.53;;;0.53;;
23123;SDS011;11731;48.592;8.858;2023-11-19T10:11:21;0.70;;;0.60;;
23123;SDS011;11731;48.592;8.858;2023-11-19T10:13:48;1.20;;;0.30;;
23123;SDS011;11731;48.592;8.858;2023-11-19T10:16:15;0.10;;;0.10;;
23123;SDS011;11731;48.592;8.858;2023-11-19T10:18:44;0.30;;;0.20;;
23123;SDS011;11731;48.592;8.858;2023-11-19T10:21:18;0.30;;;0.30;;
23123;SDS011;11731;48.592;8.858;2023-11-19T10:23:53;0.57;;;0.40;;
23123;SDS011;11731;48.592;8.858;2023-11-19T10:29:07;0.63;;;0.30;;
23123;SDS011;11731;48.592;8.858;2023-11-19T10:31:34;0.17;;;0.17;;
23123;SDS011;11731;48.592;8.858;2023-11-19T10:34:00;0.30;;;0.20;;
23123;SDS011;11731;48.592;8.858;2023-11-19T10:36:38;0.33;;;0.33;;
23123;SDS011;11731;48.592;8.858;2023-11-19T10:39:07;0.20;;;0.17;;
23123;SDS011;11731;48.592;8.858;2023-11-19T10:41:40;0.37;;;0.37;;
23123;SDS011;11731;48.592;8.858;2023-11-19T10:44:31;0.27;;;0.27;;
23123;SDS011;11731;48.592;8.858;2023-11-19T10:47:01;0.57;;;0.43;;
23123;SDS011;11731;48.592;8.858;2023-11-19T10:49:28;0.83;;;0.30;;
23123;SDS011;11731;48.592;8.858;2023-11-19T10:52:53;0.40;;;0.40;;
23123;SDS011;11731;48.592;8.858;2023-11-19T10:55:14;0.30;;;0.20;;
23123;SDS011;11731;48.592;8.858;2023-11-19T10:57:46;0.87;;;0.23;;
23123;SDS011;11731;48.592;8.858;2023-11-19T11:00:15;3.73;;;0.40;;
23123;SDS011;11731;48.592;8.858;2023-11-19T11:02:45;0.23;;;0.23;;
23123;SDS011;11731;48.592;8.858;2023-11-19T11:05:19;0.60;;;0.47;;
23123;SDS011;11731;48.592;8.858;2023-11-19T11:07:48;0.63;;;0.33;;
23123;SDS011;11731;48.592;8.858;2023-11-19T11:10:19;1.07;;;0.50;;
23123;SDS011;11731;48.592;8.858;2023-11-19T11:12:49;0.97;;;0.47;;
23123;SDS011;11731;48.592;8.858;2023-11-19T11:15:21;0.30;;;0.30;;
23123;SDS011;11731;48.592;8.858;2023-11-19T11:18:05;0.27;;;0.27;;
23123;SDS011;11731;48.592;8.858;2023-11-19T11:20:48;0.20;;;0.20;;
23123;SDS011;11731;48.592;8.858;2023-11-19T11:23:24;0.57;;;0.20;;
23123;SDS011;11731;48.592;8.858;2023-11-19T11:26:14;1.07;;;0.40;;
23123;SDS011;11731;48.592;8.858;2023-11-19T11:28:56;2.53;;;0.50;;
23123;SDS011;11731;48.592;8.858;2023-11-19T11:31:36;0.43;;;0.40;;
23123;SDS011;11731;48.592;8.858;2023-11-19T11:34:51;0.23;;;0.23;;
23123;SDS011;11731;48.592;8.858;2023-11-19T11:37:29;0.30;;;0.30;;
23123;SDS011;11731;48.592;8.858;2023-11-19T11:39:59;0.60;;;0.43;;
23123;SDS011;11731;48.592;8.858;2023-11-19T11:42:30;0.10;;;0.10;;
23123;SDS011;11731;48.592;8.858;2023-11-19T11:45:04;1.03;;;0.60;;
23123;SDS011;11731;48.592;8.858;2023-11-19T11:53:29;0.33;;;0.33;;
23123;SDS011;11731;48.592;8.858;2023-11-19T11:55:57;0.67;;;0.30;;
23123;SDS011;11731;48.592;8.858;2023-11-19T11:58:26;2.63;;;0.47;;
23123;SDS011;11731;48.592;8.858;2023-11-19T12:00:58;0.20;;;0.20;;
23123;SDS011;11731;48.592;8.858;2023-11-19T12:03:27;0.80;;;0.37;;
23123;SDS011;11731;48.592;8.858;2023-11-19T12:05:55;0.30;;;0.30;;
23123;SDS011;11731;48.592;8.858;2023-11-19T12:08:27;0.40;;;0.40;;
23123;SDS011;11731;48.592;8.858;2023-11-19T12:11:59;0.80;;;0.47;;
23123;SDS011;11731;48.592;8.858;2023-11-19T12:14:00;0.93;;;0.47;;
23123;SDS011;11731;48.592;8.858;2023-11-19T12:19:51;2.87;;;0.60;;
23123;SDS011;11731;48.592;8.858;2023-11-19T12:22:18;0.50;;;0.40;;
23123;SDS011;11731;48.592;8.858;2023-11-19T12:24:45;0.60;;;0.37;;
23123;SDS011;11731;48.592;8.858;2023-11-19T12:27:17;2.80;;;0.50;;
23123;SDS011;11731;48.592;8.858;2023-11-19T12:29:57;1.87;;;0.60;;
23123;SDS011;11731;48.592;8.858;2023-11-19T12:35:38;0.83;;;0.30;;
23123;SDS011;11731;48.592;8.858;2023-11-19T12:38:05;1.63;;;0.43;;
23123;SDS011;11731;48.592;8.858;2023-11-19T12:43:36;0.40;;;0.37;;
23123;SDS011;11731;48.592;8.858;2023-11-19T12:46:16;0.70;;;0.50;;
23123;SDS011;11731;48.592;8.858;2023-11-19T12:48:45;2.00;;;0.50;;
23123;SDS011;11731;48.592;8.858;2023-11-19T12:51:13;0.70;;;0.60;;
23123;SDS011;11731;48.592;8.858;2023-11-19T12:53:49;1.43;;;0.60;;
23123;SDS011;11731;48.592;8.858;2023-11-19T12:56:19;2.07;;;0.50;;
23123;SDS011;11731;48.592;8.858;2023-11-19T12:58:46;1.00;;;0.57;;
23123;SDS011;11731;48.592;8.858;2023-11-19T13:01:17;0.93;;;0.47;;
23123;SDS011;11731;48.592;8.858;2023-11-19T13:03:47;0.43;;;0.43;;
23123;SDS011;11731;48.592;8.858;2023-11-19T13:06:16;0.40;;;0.40;;
23123;SDS011;11731;48.592;8.858;2023-11-19T13:08:46;2.30;;;0.40;;
23123;SDS011;11731;48.592;8.858;2023-11-19T13:11:29;1.37;;;0.50;;
23123;SDS011;11731;48.592;8.858;2023-11-19T13:14:36;0.40;;;0.40;;
23123;SDS011;11731;48.592;8.858;2023-11-19T13:17:03;0.53;;;0.50;;
23123;SDS011;11731;48.592;8.858;2023-11-19T13:19:36;0.50;;;0.40;;
23123;SDS011;11731;48.592;8.858;2023-11-19T13:22:03;0.67;;;0.60;;
23123;SDS011;11731;48.592;8.858;2023-11-19T13:24:30;0.40;;;0.37;;
23123;SDS011;11731;48.592;8.858;2023-11-19T13:26:57;0.63;;;0.47;;
23123;SDS011;11731;48.592;8.858;2023-11-19T13:29:24;0.60;;;0.30;;
23123;SDS011;11731;48.592;8.858;2023-11-19T13:31:51;0.40;;;0.27;;
23123;SDS011;11731;48.592;8.858;2023-11-19T13:37:08;1.00;;;0.57;;
23123;SDS011;11731;48.592;8.858;2023-11-19T13:42:54;2.33;;;0.70;;
23123;SDS011;11731;48.592;8.858;2023-11-19T13:45:21;0.30;;;0.30;;
23123;SDS011;11731;48.592;8.858;2023-11-19T13:47:51;0.43;;;0.37;;
23123;SDS011;11731;48.592;8.858;2023-11-19T13:50:21;1.40;;;0.60;;
23123;SDS011;11731;48.592;8.858;2023-11-19T13:52:49;1.00;;;0.60;;
23123;SDS011;11731;48.592;8.858;2023-11-19T13:55:18;0.70;;;0.60;;
23123;SDS011;11731;48.592;8.858;2023-11-19T13:57:47;0.50;;;0.50;;
23123;SDS011;11731;48.592;8.858;2023-11-19T14:03:54;0.87;;;0.50;;
23123;SDS011;11731;48.592;8.858;2023-11-19T14:06:22;0.70;;;0.50;;
23123;SDS011;11731;48.592;8.858;2023-11-19T14:11:52;1.77;;;0.47;;
23123;SDS011;11731;48.592;8.858;2023-11-19T14:14:49;0.60;;;0.33;;
23123;SDS011;11731;48.592;8.858;2023-11-19T14:20:43;1.23;;;0.50;;
23123;SDS011;11731;48.592;8.858;2023-11-19T14:26:28;0.83;;;0.50;;
23123;SDS011;11731;48.592;8.858;2023-11-19T14:29:04;0.40;;;0.40;;
23123;SDS011;11731;48.592;8.858;2023-11-19T14:31:33;1.50;;;0.60;;
23123;SDS011;11731;48.592;8.858;2023-11-19T14:34:00;0.50;;;0.40;;
23123;SDS011;11731;48.592;8.858;2023-11-19T14:36:28;1.47;;;0.67;;
23123;SDS011;11731;48.592;8.858;2023-11-19T14:44:31;0.53;;;0.40;;
23123;SDS011;11731;48.592;8.858;2023-11-19T14:47:00;2.10;;;0.40;;
23123;SDS011;11731;48.592;8.858;2023-11-19T14:49:32;0.70;;;0.43;;
23123;SDS011;11731;48.592;8.858;2023-11-19T14:52:02;1.43;;;0.40;;
23123;SDS011;11731;48.592;8.858;2023-11-19T14:54:32;0.30;;;0.30;;
23123;SDS011;11731;48.592;8.858;2023-11-19T14:57:35;0.77;;;0.57;;
23123;SDS011;11731;48.592;8.858;2023-11-19T14:59:50;1.70;;;0.70;;
23123;SDS011;11731;48.592;8.858;2023-11-19T15:02:23;0.53;;;0.33;;
23123;SDS011;11731;48.592;8.858;2023-11-19T15:04:50;2.20;;;0.50;;
23123;SDS011;11731;48.592;8.858;2023-11-19T15:07:17;0.70;;;0.63;;
23123;SDS011;11731;48.592;8.858;2023-11-19T15:09:46;0.30;;;0.30;;
23123;SDS011;11731;48.592;8.858;2023-11-19T15:12:13;0.50;;;0.47;;
23123;SDS011;11731;48.592;8.858;2023-11-19T15:17:52;2.37;;;0.60;;
23123;SDS011;11731;48.592;8.858;2023-11-19T15:20:18;1.03;;;0.50;;
23123;SDS011;11731;48.592;8.858;2023-11-19T15:22:47;0.90;;;0.50;;
23123;SDS011;11731;48.592;8.858;2023-11-19T15:25:16;1.47;;;0.60;;
23123;SDS011;11731;48.592;8.858;2023-11-19T15:27:48;0.43;;;0.33;;
23123;SDS011;11731;48.592;8.858;2023-11-19T15:30:53;2.33;;;0.50;;
23123;SDS011;11731;48.592;8.858;2023-11-19T15:33:20;1.83;;;0.90;;
23123;SDS011;11731;48.592;8.858;2023-11-19T15:35:47;2.17;;;0.37;;
23123;SDS011;11731;48.592;8.858;2023-11-19T15:38:14;0.57;;;0.53;;
23123;SDS011;11731;48.592;8.858;2023-11-19T15:40:43;0.47;;;0.43;;
23123;SDS011;11731;48.592;8.858;2023-11-19T15:43:19;1.50;;;0.60;;
23123;SDS011;11731;48.592;8.858;2023-11-19T15:45:49;1.93;;;0.60;;
23123;SDS011;11731;48.592;8.858;2023-11-19T15:48:18;1.40;;;0.80;;
23123;SDS011;11731;48.592;8.858;2023-11-19T15:50:58;0.93;;;0.60;;
23123;SDS011;11731;48.592;8.858;2023-11-19T15:53:26;1.40;;;1.13;;
23123;SDS011;11731;48.592;8.858;2023-11-19T15:56:13;1.93;;;1.00;;
23123;SDS011;11731;48.592;8.858;2023-11-19T15:58:43;0.53;;;0.50;;
23123;SDS011;11731;48.592;8.858;2023-11-19T16:01:18;0.90;;;0.47;;
23123;SDS011;11731;48.592;8.858;2023-11-19T16:03:48;1.57;;;0.70;;
23123;SDS011;11731;48.592;8.858;2023-11-19T16:09:31;2.23;;;0.80;;
23123;SDS011;11731;48.592;8.858;2023-11-19T16:21:29;1.50;;;0.93;;
23123;SDS011;11731;48.592;8.858;2023-11-19T16:23:56;0.70;;;0.57;;
23123;SDS011;11731;48.592;8.858;2023-11-19T16:26:30;0.77;;;0.70;;
23123;SDS011;11731;48.592;8.858;2023-11-19T16:29:03;3.37;;;1.00;;
23123;SDS011;11731;48.592;8.858;2023-11-19T16:31:44;1.40;;;1.20;;
23123;SDS011;11731;48.592;8.858;2023-11-19T16:34:13;1.40;;;1.00;;
23123;SDS011;11731;48.592;8.858;2023-11-19T16:36:41;1.87;;;0.80;;
23123;SDS011;11731;48.592;8.858;2023-11-19T16:39:09;1.73;;;0.80;;
23123;SDS011;11731;48.592;8.858;2023-11-19T16:41:35;1.27;;;0.83;;
23123;SDS011;11731;48.592;8.858;2023-11-19T16:44:05;1.77;;;0.90;;
23123;SDS011;11731;48.592;8.858;2023-11-19T16:46:34;1.10;;;0.80;;
23123;SDS011;11731;48.592;8.858;2023-11-19T16:49:08;0.97;;;0.80;;
23123;SDS011;11731;48.592;8.858;2023-11-19T16:51:35;0.70;;;0.70;;
23123;SDS011;11731;48.592;8.858;2023-11-19T16:54:04;0.80;;;0.77;;
23123;SDS011;11731;48.592;8.858;2023-11-19T16:56:31;2.93;;;0.90;;
23123;SDS011;11731;48.592;8.858;2023-11-19T16:58:58;1.20;;;0.90;;
23123;SDS011;11731;48.592;8.858;2023-11-19T17:01:25;2.30;;;0.90;;
23123;SDS011;11731;48.592;8.858;2023-11-19T17:03:55;1.37;;;1.10;;
23123;SDS011;11731;48.592;8.858;2023-11-19T17:06:23;1.87;;;0.90;;
23123;SDS011;11731;48.592;8.858;2023-11-19T17:08:59;2.90;;;1.10;;
23123;SDS011;11731;48.592;8.858;2023-11-19T17:12:00;1.70;;;1.23;;